Time;durP1;ratioP1;P1;durP2;ratioP2;P2;SDS_P1;SDS_P2;PMS_P1;PMS_P2;Temp;Humidity;BMP_temperature;BMP_pressure;BME280_temperature;BME280_humidity;BME280_pressure;Samples;Min_cycle;Max_cycle;Signal;HPM_P1;HPM_P2
2023/01/27 00:00:53;;;;;;;;;;;;;;;;;;5053109;28;20268;-67
2023/01/27 00:03:19;;;;;;;;;;;;;;;;;;5053774;28;19928;-67
2023/01/27 00:05:44;;;;;;;;;;;;;;;;;;5036319;28;19976;-67
2023/01/27 00:08:10;;;;;;;;;;;;;;;;;;5051775;28;20445;-67
2023/01/27 00:10:36;;;;;;;;;;;;;;;;;;5053068;28;19925;-67
2023/01/27 00:15:46;;;;;;;;;;;;;;;;;;5052043;28;19921;-67
2023/01/27 00:18:13;;;;;;;;;;;;;;;;;;5036147;28;19924;-67
2023/01/27 00:26:08;;;;;;;;;;;;;;;;;;5050472;28;20371;-67
2023/01/27 00:28:34;;;;;;;;;;;;;;;;;;5035673;28;19921;-67
2023/01/27 00:30:59;;;;;;;;;;;;;;;;;;5050400;28;19921;-67
2023/01/27 00:33:28;;;;;;;;;;;;;;;;;;5047868;28;20015;-67
2023/01/27 00:35:54;;;;;;;;;;;;;;;;;;5033612;28;19925;-67
2023/01/27 00:38:20;;;;;;;;;;;;;;;;;;5042584;28;20291;-67
2023/01/27 00:41:14;;;;;;;;;;;;;;;;;;5047452;28;19927;-67
2023/01/27 00:43:32;;;;;;;;;;;;;;;;;;5046776;28;19925;-67
2023/01/27 00:45:58;;;;;;;;;;;;;;;;;;5039920;28;19925;-67
2023/01/27 00:48:24;;;;;;;;;;;;;;;;;;5043699;28;19951;-67
2023/01/27 00:50:50;;;;;;;;;;;;;;;;;;5044589;28;19921;-66
2023/01/27 00:53:16;;;;;;;;;;;;;;;;;;5039738;28;20637;-66
2023/01/27 00:55:42;;;;;;;;;;;;;;;;;;5022748;28;19921;-67
2023/01/27 00:58:08;;;;;;;;;;;;;;;;;;5046344;28;19943;-67
2023/01/27 01:00:33;;;;;;;;;;;;;;;;;;5064850;28;19925;-67
2023/01/27 01:02:59;;;;;;;;;;;;;;;;;;5033074;28;20406;-67
2023/01/27 01:05:25;;;;;;;;;;;;;;;;;;5047867;28;19925;-67
2023/01/27 01:07:51;;;;;;;;;;;;;;;;;;5050409;28;19959;-67
2023/01/27 01:10:17;;;;;;;;;;;;;;;;;;5050892;28;19966;-67
2023/01/27 01:12:43;;;;;;;;;;;;;;;;;;5041367;28;19932;-67
2023/01/27 01:15:09;;;;;;;;;;;;;;;;;;5015018;28;19928;-67
2023/01/27 01:17:35;;;;;;;;;;;;;;;;;;5043727;28;19928;-67
2023/01/27 01:20:00;;;;;;;;;;;;;;;;;;5052934;28;20261;-67
2023/01/27 01:22:26;;;;;;;;;;;;;;;;;;5030536;28;19947;-67
2023/01/27 01:24:52;;;;;;;;;;;;;;;;;;5052596;28;19972;-67
2023/01/27 01:27:18;;;;;;;;;;;;;;;;;;5040629;28;19925;-67
2023/01/27 01:29:44;;;;;;;;;;;;;;;;;;5039718;28;19925;-67
2023/01/27 01:32:10;;;;;;;;;;;;;;;;;;5047823;28;19925;-67
2023/01/27 01:34:36;;;;;;;;;;;;;;;;;;5048218;28;19960;-68
2023/01/27 01:37:02;;;;;;;;;;;;;;;;;;5015975;28;19929;-67
2023/01/27 01:39:28;;;;;;;;;;;;;;;;;;5052092;28;19935;-67
2023/01/27 01:41:54;;;;;;;;;;;;;;;;;;5050072;28;19921;-67
2023/01/27 01:44:20;;;;;;;;;;;;;;;;;;5018335;28;20071;-67
2023/01/27 01:46:46;;;;;;;;;;;;;;;;;;5040886;23;19921;-67
2023/01/27 01:49:12;;;;;;;;;;;;;;;;;;5033139;28;19986;-67
2023/01/27 01:51:38;;;;;;;;;;;;;;;;;;5052209;28;19921;-68
2023/01/27 01:54:04;;;;;;;;;;;;;;;;;;5050501;28;20293;-67
2023/01/27 01:56:30;;;;;;;;;;;;;;;;;;5059018;28;19925;-67
2023/01/27 01:58:56;;;;;;;;;;;;;;;;;;5034520;28;19967;-67
2023/01/27 02:01:21;;;;;;;;;;;;;;;;;;5032885;28;20390;-67
2023/01/27 02:03:47;;;;;;;;;;;;;;;;;;5033180;28;19921;-67
2023/01/27 02:06:13;;;;;;;;;;;;;;;;;;5051045;28;19966;-67
2023/01/27 02:08:39;;;;;;;;;;;;;;;;;;5051835;28;19925;-67
2023/01/27 02:11:05;;;;;;;;;;;;;;;;;;5050515;28;19924;-67
2023/01/27 02:13:31;;;;;;;;;;;;;;;;;;5049331;28;20675;-67
2023/01/27 02:15:57;;;;;;;;;;;;;;;;;;5055063;28;20020;-67
2023/01/27 02:18:23;;;;;;;;;;;;;;;;;;5057347;28;19977;-67
2023/01/27 02:20:49;;;;;;;;;;;;;;;;;;5058541;28;20359;-67
2023/01/27 02:23:15;;;;;;;;;;;;;;;;;;5057754;28;19932;-66
2023/01/27 02:25:41;;;;;;;;;;;;;;;;;;5058535;28;19972;-66
2023/01/27 02:28:07;;;;;;;;;;;;;;;;;;5058298;28;19921;-67
2023/01/27 02:30:33;;;;;;;;;;;;;;;;;;5057731;28;19924;-67
2023/01/27 02:32:58;;;;;;;;;;;;;;;;;;5056855;28;19936;-67
2023/01/27 02:35:24;;;;;;;;;;;;;;;;;;5038466;28;20306;-67
2023/01/27 02:37:50;;;;;;;;;;;;;;;;;;5034067;28;19920;-68
2023/01/27 02:40:16;;;;;;;;;;;;;;;;;;5040291;28;19921;-68
2023/01/27 02:42:42;;;;;;;;;;;;;;;;;;5039927;28;20337;-68
2023/01/27 02:45:08;;;;;;;;;;;;;;;;;;5055933;28;20684;-68
2023/01/27 02:47:34;;;;;;;;;;;;;;;;;;5052660;28;19951;-68
2023/01/27 02:50:00;;;;;;;;;;;;;;;;;;5057722;28;19976;-67
2023/01/27 02:52:26;;;;;;;;;;;;;;;;;;5058007;28;19920;-67
2023/01/27 02:54:51;;;;;;;;;;;;;;;;;;5056521;28;19935;-67
2023/01/27 02:57:17;;;;;;;;;;;;;;;;;;5057055;28;20007;-67
2023/01/27 02:59:43;;;;;;;;;;;;;;;;;;5057447;28;19949;-67
2023/01/27 03:02:13;;;;;;;;;;;;;;;;;;5039657;28;19924;-67
2023/01/27 03:04:39;;;;;;;;;;;;;;;;;;5056572;28;19931;-67
2023/01/27 03:07:05;;;;;;;;;;;;;;;;;;5057377;28;19920;-67
2023/01/27 03:09:31;;;;;;;;;;;;;;;;;;5058329;28;19946;-67
2023/01/27 03:20:10;;;;;;;;;;;;;;;;;;5057175;28;19921;-67
2023/01/27 03:22:36;;;;;;;;;;;;;;;;;;5058121;28;19925;-68
2023/01/27 03:25:02;;;;;;;;;;;;;;;;;;5057302;28;20440;-68
2023/01/27 03:27:28;;;;;;;;;;;;;;;;;;5036193;28;19931;-68
2023/01/27 03:29:54;;;;;;;;;;;;;;;;;;5055159;28;19924;-66
2023/01/27 03:32:20;;;;;;;;;;;;;;;;;;5054682;28;19921;-67
2023/01/27 03:34:46;;;;;;;;;;;;;;;;;;5036346;28;19921;-67
2023/01/27 03:48:10;;;;;;;;;;;;;;;;;;5052650;28;19925;-67
2023/01/27 03:50:36;;;;;;;;;;;;;;;;;;5054899;28;19935;-67
2023/01/27 03:53:02;;;;;;;;;;;;;;;;;;5034894;28;19920;-67
2023/01/27 03:55:29;;;;;;;;;;;;;;;;;;5035824;28;19921;-67
2023/01/27 03:57:55;;;;;;;;;;;;;;;;;;5053660;28;19975;-67
2023/01/27 04:00:21;;;;;;;;;;;;;;;;;;5036492;28;20390;-67
2023/01/27 04:08:16;;;;;;;;;;;;;;;;;;5034458;28;19925;-67
2023/01/27 04:11:53;;;;;;;;;;;;;;;;;;5036174;28;20330;-67
2023/01/27 04:13:28;;;;;;;;;;;;;;;;;;5053554;28;19925;-67
2023/01/27 04:15:54;;;;;;;;;;;;;;;;;;5053991;28;19927;-67
2023/01/27 04:18:20;;;;;;;;;;;;;;;;;;5053058;28;20004;-67
2023/01/27 04:20:46;;;;;;;;;;;;;;;;;;5054072;28;19927;-67
2023/01/27 04:23:12;;;;;;;;;;;;;;;;;;5036230;28;19928;-67
2023/01/27 04:25:38;;;;;;;;;;;;;;;;;;5051621;28;19929;-67
2023/01/27 04:28:04;;;;;;;;;;;;;;;;;;5052624;28;20319;-67
2023/01/27 04:30:30;;;;;;;;;;;;;;;;;;5050816;28;19947;-67
2023/01/27 04:32:56;;;;;;;;;;;;;;;;;;5017753;28;19986;-67
2023/01/27 04:35:22;;;;;;;;;;;;;;;;;;5051897;28;19925;-67
2023/01/27 04:37:48;;;;;;;;;;;;;;;;;;5050076;28;19971;-67
2023/01/27 04:40:14;;;;;;;;;;;;;;;;;;5031461;28;19921;-67
2023/01/27 04:42:40;;;;;;;;;;;;;;;;;;5032563;28;19925;-67
2023/01/27 04:45:05;;;;;;;;;;;;;;;;;;5050729;28;20015;-67
2023/01/27 04:47:31;;;;;;;;;;;;;;;;;;5050488;28;19931;-67
2023/01/27 04:49:57;;;;;;;;;;;;;;;;;;5050402;28;20339;-67
2023/01/27 04:52:23;;;;;;;;;;;;;;;;;;5050112;28;19994;-67
2023/01/27 04:54:49;;;;;;;;;;;;;;;;;;5033674;28;20590;-67
2023/01/27 04:57:15;;;;;;;;;;;;;;;;;;5052450;28;19943;-67
2023/01/27 04:59:41;;;;;;;;;;;;;;;;;;5032033;28;19921;-67
2023/01/27 05:02:07;;;;;;;;;;;;;;;;;;5046247;28;20290;-66
2023/01/27 05:04:33;;;;;;;;;;;;;;;;;;5052133;28;20020;-67
2023/01/27 05:06:59;;;;;;;;;;;;;;;;;;5016978;28;19980;-67
2023/01/27 05:09:25;;;;;;;;;;;;;;;;;;5052413;28;20019;-67
2023/01/27 05:11:50;;;;;;;;;;;;;;;;;;5033248;28;19925;-67
2023/01/27 05:14:16;;;;;;;;;;;;;;;;;;5033835;28;19946;-67
2023/01/27 05:16:42;;;;;;;;;;;;;;;;;;5034721;28;20058;-67
2023/01/27 05:19:08;;;;;;;;;;;;;;;;;;5052458;28;19920;-67
2023/01/27 05:21:34;;;;;;;;;;;;;;;;;;5051828;28;19925;-67
2023/01/27 05:24:00;;;;;;;;;;;;;;;;;;5034897;28;20007;-67
2023/01/27 05:26:26;;;;;;;;;;;;;;;;;;5052374;28;20340;-67
2023/01/27 05:28:52;;;;;;;;;;;;;;;;;;5034779;28;19921;-67
2023/01/27 05:31:18;;;;;;;;;;;;;;;;;;5034459;28;19971;-67
2023/01/27 05:33:43;;;;;;;;;;;;;;;;;;5052549;28;20014;-67
2023/01/27 05:36:09;;;;;;;;;;;;;;;;;;5051336;28;20373;-67
2023/01/27 05:38:35;;;;;;;;;;;;;;;;;;5052585;28;19921;-67
2023/01/27 05:41:01;;;;;;;;;;;;;;;;;;5032475;28;19959;-67
2023/01/27 05:43:27;;;;;;;;;;;;;;;;;;5052042;28;19979;-67
2023/01/27 05:45:53;;;;;;;;;;;;;;;;;;5052246;28;19921;-67
2023/01/27 05:48:19;;;;;;;;;;;;;;;;;;5050902;28;20384;-67
2023/01/27 05:50:45;;;;;;;;;;;;;;;;;;5050270;28;20619;-67
2023/01/27 05:53:11;;;;;;;;;;;;;;;;;;5052231;28;19924;-67
2023/01/27 05:55:37;;;;;;;;;;;;;;;;;;5052246;28;19975;-67
2023/01/27 05:58:03;;;;;;;;;;;;;;;;;;5052205;28;19928;-67
2023/01/27 06:00:28;;;;;;;;;;;;;;;;;;5049527;28;19925;-67
2023/01/27 06:02:54;;;;;;;;;;;;;;;;;;5052454;28;19925;-67
2023/01/27 06:05:20;;;;;;;;;;;;;;;;;;5033959;28;19925;-67
2023/01/27 06:07:46;;;;;;;;;;;;;;;;;;5052065;28;19968;-67
2023/01/27 06:10:13;;;;;;;;;;;;;;;;;;5051810;28;20416;-67
2023/01/27 06:12:38;;;;;;;;;;;;;;;;;;5033142;28;19935;-67
2023/01/27 06:15:04;;;;;;;;;;;;;;;;;;5033184;28;19925;-67
2023/01/27 06:17:30;;;;;;;;;;;;;;;;;;5049677;28;19924;-67
2023/01/27 06:19:56;;;;;;;;;;;;;;;;;;5041894;28;20011;-67
2023/01/27 06:22:22;;;;;;;;;;;;;;;;;;5051049;28;19927;-67
2023/01/27 06:24:48;;;;;;;;;;;;;;;;;;5050732;28;19921;-67
2023/01/27 06:27:14;;;;;;;;;;;;;;;;;;5050530;28;20373;-67
2023/01/27 06:29:40;;;;;;;;;;;;;;;;;;5051915;28;19928;-67
2023/01/27 06:32:06;;;;;;;;;;;;;;;;;;5052061;28;19956;-66
2023/01/27 06:34:31;;;;;;;;;;;;;;;;;;5032811;28;20015;-66
2023/01/27 06:36:57;;;;;;;;;;;;;;;;;;5033650;28;19928;-66
2023/01/27 06:39:23;;;;;;;;;;;;;;;;;;5033854;28;20383;-67
2023/01/27 06:41:49;;;;;;;;;;;;;;;;;;5051729;28;19975;-67
2023/01/27 06:44:15;;;;;;;;;;;;;;;;;;5033792;28;20282;-67
2023/01/27 06:46:41;;;;;;;;;;;;;;;;;;5051898;28;20417;-67
2023/01/27 06:49:07;;;;;;;;;;;;;;;;;;5049971;28;19929;-67
2023/01/27 06:51:33;;;;;;;;;;;;;;;;;;5048931;28;19979;-67
2023/01/27 06:53:58;;;;;;;;;;;;;;;;;;5050367;28;19925;-67
2023/01/27 06:56:24;;;;;;;;;;;;;;;;;;5051139;28;20007;-69
2023/01/27 06:58:50;;;;;;;;;;;;;;;;;;5051393;28;20537;-68
2023/01/27 07:01:16;;;;;;;;;;;;;;;;;;5050789;28;20364;-68
2023/01/27 07:03:42;;;;;;;;;;;;;;;;;;5055516;28;19970;-68
2023/01/27 07:06:09;;;;;;;;;;;;;;;;;;5054106;28;20008;-68
2023/01/27 07:08:35;;;;;;;;;;;;;;;;;;5054699;28;19928;-67
2023/01/27 07:11:02;;;;;;;;;;;;;;;;;;5035619;28;19982;-67
2023/01/27 07:13:28;;;;;;;;;;;;;;;;;;5032562;28;20493;-67
2023/01/27 07:15:54;;;;;;;;;;;;;;;;;;5036705;28;19924;-67
2023/01/27 07:18:20;;;;;;;;;;;;;;;;;;5036095;28;19921;-68
2023/01/27 07:20:45;;;;;;;;;;;;;;;;;;5054686;28;20054;-67
2023/01/27 07:23:12;;;;;;;;;;;;;;;;;;5036003;28;20409;-67
2023/01/27 07:25:38;;;;;;;;;;;;;;;;;;5035265;28;19928;-67
2023/01/27 07:28:04;;;;;;;;;;;;;;;;;;5036470;28;20307;-67
2023/01/27 07:30:30;;;;;;;;;;;;;;;;;;5053582;28;19925;-67
2023/01/27 07:32:55;;;;;;;;;;;;;;;;;;5073041;28;19924;-67
2023/01/27 07:35:21;;;;;;;;;;;;;;;;;;5042686;28;20393;-67
2023/01/27 07:37:47;;;;;;;;;;;;;;;;;;5051870;28;19921;-67
2023/01/27 07:40:13;;;;;;;;;;;;;;;;;;5052564;28;20337;-67
2023/01/27 07:42:39;;;;;;;;;;;;;;;;;;5054420;28;19936;-67
2023/01/27 07:45:05;;;;;;;;;;;;;;;;;;5063395;28;19924;-67
2023/01/27 07:47:31;;;;;;;;;;;;;;;;;;5054084;28;19991;-67
2023/01/27 07:49:57;;;;;;;;;;;;;;;;;;5053556;28;19951;-67
2023/01/27 07:52:22;;;;;;;;;;;;;;;;;;5051531;28;19928;-67
2023/01/27 07:54:48;;;;;;;;;;;;;;;;;;5050260;28;20039;-67
2023/01/27 07:57:14;;;;;;;;;;;;;;;;;;5052666;28;19921;-68
2023/01/27 07:59:40;;;;;;;;;;;;;;;;;;5051951;28;19921;-66
2023/01/27 08:02:06;;;;;;;;;;;;;;;;;;5018733;28;20351;-65
2023/01/27 08:04:32;;;;;;;;;;;;;;;;;;5053319;28;19929;-67
2023/01/27 08:06:58;;;;;;;;;;;;;;;;;;5053357;28;19944;-67
2023/01/27 08:09:24;;;;;;;;;;;;;;;;;;5054026;28;19921;-67
2023/01/27 08:11:50;;;;;;;;;;;;;;;;;;5035583;28;19921;-67
2023/01/27 08:14:15;;;;;;;;;;;;;;;;;;5052329;28;20289;-67
2023/01/27 08:16:41;;;;;;;;;;;;;;;;;;5051519;28;20011;-67
2023/01/27 08:19:07;;;;;;;;;;;;;;;;;;5034735;28;19921;-67
2023/01/27 08:21:33;;;;;;;;;;;;;;;;;;5054035;28;19932;-67
2023/01/27 08:23:59;;;;;;;;;;;;;;;;;;5053782;28;19925;-67
2023/01/27 08:26:25;;;;;;;;;;;;;;;;;;5030801;28;19928;-66
2023/01/27 08:28:51;;;;;;;;;;;;;;;;;;5032403;28;19921;-66
2023/01/27 08:31:17;;;;;;;;;;;;;;;;;;5033936;28;19929;-66
2023/01/27 08:33:42;;;;;;;;;;;;;;;;;;5036812;28;20035;-66
2023/01/27 08:36:09;;;;;;;;;;;;;;;;;;5046210;28;19921;-68
2023/01/27 08:38:36;;;;;;;;;;;;;;;;;;5051649;28;19990;-67
2023/01/27 08:41:02;;;;;;;;;;;;;;;;;;5033178;28;20305;-67
2023/01/27 08:43:28;;;;;;;;;;;;;;;;;;5050608;28;19921;-67
2023/01/27 08:45:55;;;;;;;;;;;;;;;;;;5051581;28;19967;-67
2023/01/27 08:48:21;;;;;;;;;;;;;;;;;;5050825;28;19948;-67
2023/01/27 08:50:48;;;;;;;;;;;;;;;;;;5051101;28;19928;-67
2023/01/27 08:53:14;;;;;;;;;;;;;;;;;;5047043;28;20401;-67
2023/01/27 08:55:40;;;;;;;;;;;;;;;;;;5033173;28;19925;-67
2023/01/27 08:58:06;;;;;;;;;;;;;;;;;;5046157;28;19924;-67
2023/01/27 09:00:32;;;;;;;;;;;;;;;;;;5031035;28;20465;-67
2023/01/27 09:02:58;;;;;;;;;;;;;;;;;;5043634;28;20012;-67
2023/01/27 09:05:24;;;;;;;;;;;;;;;;;;5053255;28;19921;-68
2023/01/27 09:07:50;;;;;;;;;;;;;;;;;;5029820;28;20378;-68
2023/01/27 09:10:16;;;;;;;;;;;;;;;;;;5025325;28;19932;-68
2023/01/27 09:12:42;;;;;;;;;;;;;;;;;;5015200;28;19921;-68
2023/01/27 09:15:08;;;;;;;;;;;;;;;;;;5052987;28;20274;-68
2023/01/27 09:17:34;;;;;;;;;;;;;;;;;;5034157;28;20389;-68
2023/01/27 09:19:59;;;;;;;;;;;;;;;;;;5034837;28;20003;-68
2023/01/27 09:22:25;;;;;;;;;;;;;;;;;;5033618;28;19967;-67
2023/01/27 09:24:51;;;;;;;;;;;;;;;;;;5051888;28;19928;-68
2023/01/27 09:27:17;;;;;;;;;;;;;;;;;;5052871;28;19931;-68
2023/01/27 09:29:43;;;;;;;;;;;;;;;;;;5017061;28;19959;-68
2023/01/27 09:32:11;;;;;;;;;;;;;;;;;;5049365;28;19928;-68
2023/01/27 09:34:37;;;;;;;;;;;;;;;;;;5051982;28;19920;-68
2023/01/27 09:37:03;;;;;;;;;;;;;;;;;;5051742;28;20416;-67
2023/01/27 09:39:29;;;;;;;;;;;;;;;;;;5052592;28;19929;-67
2023/01/27 09:41:54;;;;;;;;;;;;;;;;;;5052587;28;20365;-67
2023/01/27 09:44:20;;;;;;;;;;;;;;;;;;5045838;28;20381;-67
2023/01/27 09:46:46;;;;;;;;;;;;;;;;;;5051953;28;19960;-67
2023/01/27 09:49:12;;;;;;;;;;;;;;;;;;5032745;28;19936;-67
2023/01/27 09:51:38;;;;;;;;;;;;;;;;;;5030488;28;20385;-67
2023/01/27 09:54:04;;;;;;;;;;;;;;;;;;5046559;28;19920;-67
2023/01/27 09:56:30;;;;;;;;;;;;;;;;;;5051622;28;19967;-67
2023/01/27 09:58:56;;;;;;;;;;;;;;;;;;5050941;28;19932;-68
2023/01/27 10:01:22;;;;;;;;;;;;;;;;;;5033068;28;19928;-67
2023/01/27 10:03:47;;;;;;;;;;;;;;;;;;5050771;28;20378;-67
2023/01/27 10:06:18;;;;;;;;;;;;;;;;;;5051006;28;19971;-67
2023/01/27 10:08:44;;;;;;;;;;;;;;;;;;5045955;28;20278;-67
2023/01/27 10:11:10;;;;;;;;;;;;;;;;;;5033427;28;20011;-67
2023/01/27 10:13:36;;;;;;;;;;;;;;;;;;5051715;28;19972;-67
2023/01/27 10:16:03;;;;;;;;;;;;;;;;;;5050154;28;20275;-67
2023/01/27 10:18:29;;;;;;;;;;;;;;;;;;5031499;28;19925;-67
2023/01/27 10:20:59;;;;;;;;;;;;;;;;;;5043084;28;19924;-67
2023/01/27 10:23:25;;;;;;;;;;;;;;;;;;5049824;28;19925;-67
2023/01/27 10:25:51;;;;;;;;;;;;;;;;;;5050832;28;19940;-67
2023/01/27 10:28:17;;;;;;;;;;;;;;;;;;5032665;28;19925;-67
2023/01/27 10:30:43;;;;;;;;;;;;;;;;;;5049838;28;20007;-67
2023/01/27 10:33:09;;;;;;;;;;;;;;;;;;5050784;28;19991;-67
2023/01/27 10:35:35;;;;;;;;;;;;;;;;;;5014301;28;19924;-67
2023/01/27 10:38:00;;;;;;;;;;;;;;;;;;5054556;28;19920;-67
2023/01/27 10:40:26;;;;;;;;;;;;;;;;;;5037162;28;20585;-67
2023/01/27 10:42:52;;;;;;;;;;;;;;;;;;5050046;28;19990;-67
2023/01/27 10:45:18;;;;;;;;;;;;;;;;;;5017661;28;19925;-67
2023/01/27 10:47:44;;;;;;;;;;;;;;;;;;5054148;28;19932;-67
2023/01/27 10:50:10;;;;;;;;;;;;;;;;;;5052398;28;19925;-66
2023/01/27 10:52:36;;;;;;;;;;;;;;;;;;5054170;28;19975;-67
2023/01/27 10:55:02;;;;;;;;;;;;;;;;;;5031674;28;20385;-68
2023/01/27 10:57:28;;;;;;;;;;;;;;;;;;5041079;28;19928;-68
2023/01/27 10:59:53;;;;;;;;;;;;;;;;;;5047507;28;20004;-67
2023/01/27 11:02:23;;;;;;;;;;;;;;;;;;5035390;28;20020;-67
2023/01/27 11:04:49;;;;;;;;;;;;;;;;;;5040178;28;19972;-67
2023/01/27 11:07:15;;;;;;;;;;;;;;;;;;5052655;28;19974;-68
2023/01/27 11:09:41;;;;;;;;;;;;;;;;;;5054718;28;20293;-67
2023/01/27 11:12:06;;;;;;;;;;;;;;;;;;5049263;28;19931;-67
2023/01/27 11:14:33;;;;;;;;;;;;;;;;;;5053062;28;20016;-67
2023/01/27 11:16:59;;;;;;;;;;;;;;;;;;5051787;28;19950;-67
2023/01/27 11:19:24;;;;;;;;;;;;;;;;;;5036736;28;19920;-67
2023/01/27 11:21:50;;;;;;;;;;;;;;;;;;5052987;28;19966;-67
2023/01/27 11:24:16;;;;;;;;;;;;;;;;;;5054788;28;19928;-67
2023/01/27 11:26:42;;;;;;;;;;;;;;;;;;5053177;28;19928;-67
2023/01/27 11:29:08;;;;;;;;;;;;;;;;;;5051991;28;20386;-67
2023/01/27 11:31:36;;;;;;;;;;;;;;;;;;5048686;28;21352;-67
2023/01/27 11:34:02;;;;;;;;;;;;;;;;;;5048328;28;19921;-67
2023/01/27 11:36:28;;;;;;;;;;;;;;;;;;5051427;28;19975;-67
2023/01/27 11:38:54;;;;;;;;;;;;;;;;;;5053662;28;19920;-67
2023/01/27 11:41:20;;;;;;;;;;;;;;;;;;5032256;28;19921;-67
2023/01/27 11:43:46;;;;;;;;;;;;;;;;;;5046424;28;19932;-67
2023/01/27 11:46:12;;;;;;;;;;;;;;;;;;5052389;28;19920;-67
2023/01/27 11:48:39;;;;;;;;;;;;;;;;;;5049389;28;19990;-67
2023/01/27 11:51:05;;;;;;;;;;;;;;;;;;5054163;28;20332;-67
2023/01/27 11:53:35;;;;;;;;;;;;;;;;;;5050535;28;20007;-68
2023/01/27 11:56:01;;;;;;;;;;;;;;;;;;5049137;28;19931;-67
2023/01/27 11:58:27;;;;;;;;;;;;;;;;;;5053716;28;19921;-67
2023/01/27 12:00:53;;;;;;;;;;;;;;;;;;5051816;28;20309;-67
2023/01/27 12:03:19;;;;;;;;;;;;;;;;;;5050210;28;19935;-67
2023/01/27 12:05:45;;;;;;;;;;;;;;;;;;5048798;28;19928;-67
2023/01/27 12:08:10;;;;;;;;;;;;;;;;;;5047320;28;21823;-67
2023/01/27 12:10:41;;;;;;;;;;;;;;;;;;5051696;28;19982;-67
2023/01/27 12:13:07;;;;;;;;;;;;;;;;;;5034452;28;19939;-67
2023/01/27 12:15:33;;;;;;;;;;;;;;;;;;5052241;28;19932;-67
2023/01/27 12:17:59;;;;;;;;;;;;;;;;;;5030977;28;19928;-67
2023/01/27 12:20:25;;;;;;;;;;;;;;;;;;5051276;28;20003;-67
2023/01/27 12:22:51;;;;;;;;;;;;;;;;;;5055699;28;20362;-67
2023/01/27 12:25:17;;;;;;;;;;;;;;;;;;5050899;28;19921;-67
2023/01/27 12:27:43;;;;;;;;;;;;;;;;;;5029465;28;19966;-67
2023/01/27 12:30:09;;;;;;;;;;;;;;;;;;5055403;28;19924;-67
2023/01/27 12:32:35;;;;;;;;;;;;;;;;;;5034719;28;19928;-68
2023/01/27 12:35:01;;;;;;;;;;;;;;;;;;5053001;28;19921;-67
2023/01/27 12:37:26;;;;;;;;;;;;;;;;;;5035387;28;19921;-67
2023/01/27 12:39:55;;;;;;;;;;;;;;;;;;5053004;28;19927;-67
2023/01/27 12:42:21;;;;;;;;;;;;;;;;;;5018862;28;19921;-67
2023/01/27 12:44:47;;;;;;;;;;;;;;;;;;5052069;28;19944;-68
2023/01/27 12:47:13;;;;;;;;;;;;;;;;;;5034511;28;19929;-68
2023/01/27 12:49:41;;;;;;;;;;;;;;;;;;5034454;28;19925;-68
2023/01/27 12:52:07;;;;;;;;;;;;;;;;;;5052779;28;20345;-68
2023/01/27 12:54:33;;;;;;;;;;;;;;;;;;5052922;28;20393;-68
2023/01/27 12:56:59;;;;;;;;;;;;;;;;;;5049931;28;19921;-68
2023/01/27 12:59:25;;;;;;;;;;;;;;;;;;5052969;28;19939;-68
2023/01/27 13:01:51;;;;;;;;;;;;;;;;;;5035161;28;19920;-68
2023/01/27 13:04:17;;;;;;;;;;;;;;;;;;5053901;28;19927;-68
2023/01/27 13:06:43;;;;;;;;;;;;;;;;;;5053178;28;19994;-68
2023/01/27 13:09:09;;;;;;;;;;;;;;;;;;5054993;28;20024;-68
2023/01/27 13:11:36;;;;;;;;;;;;;;;;;;5035157;28;20012;-68
2023/01/27 13:14:02;;;;;;;;;;;;;;;;;;5061702;28;19925;-68
2023/01/27 13:16:28;;;;;;;;;;;;;;;;;;5035148;28;20284;-68
2023/01/27 13:18:54;;;;;;;;;;;;;;;;;;5035453;28;20007;-68
2023/01/27 13:21:20;;;;;;;;;;;;;;;;;;5053242;28;20427;-68
2023/01/27 13:23:46;;;;;;;;;;;;;;;;;;5052111;28;20031;-68
2023/01/27 13:26:11;;;;;;;;;;;;;;;;;;5052482;28;20023;-68
2023/01/27 13:28:37;;;;;;;;;;;;;;;;;;5035020;28;19921;-68
2023/01/27 13:31:03;;;;;;;;;;;;;;;;;;5034730;28;19925;-68
2023/01/27 13:33:29;;;;;;;;;;;;;;;;;;5051740;28;19924;-69
2023/01/27 13:35:55;;;;;;;;;;;;;;;;;;5034710;28;19928;-69
2023/01/27 13:38:21;;;;;;;;;;;;;;;;;;5052281;28;19986;-69
2023/01/27 13:40:47;;;;;;;;;;;;;;;;;;5052570;28;20003;-68
2023/01/27 13:43:13;;;;;;;;;;;;;;;;;;5061443;28;19924;-68
2023/01/27 13:45:42;;;;;;;;;;;;;;;;;;5068695;28;19929;-68
2023/01/27 13:48:07;;;;;;;;;;;;;;;;;;5051108;28;19929;-68
2023/01/27 13:50:33;;;;;;;;;;;;;;;;;;5050833;28;19925;-68
2023/01/27 13:52:59;;;;;;;;;;;;;;;;;;5052505;28;19943;-68
2023/01/27 13:55:25;;;;;;;;;;;;;;;;;;5032507;28;19924;-69
2023/01/27 13:57:51;;;;;;;;;;;;;;;;;;5030419;28;20052;-68
2023/01/27 14:00:18;;;;;;;;;;;;;;;;;;5033588;28;19920;-68
2023/01/27 14:02:45;;;;;;;;;;;;;;;;;;5030516;23;19995;-69
2023/01/27 14:05:10;;;;;;;;;;;;;;;;;;5013864;28;19935;-69
2023/01/27 14:07:36;;;;;;;;;;;;;;;;;;5032311;28;20011;-69
2023/01/27 14:10:02;;;;;;;;;;;;;;;;;;5012548;28;20020;-70
2023/01/27 14:12:28;;;;;;;;;;;;;;;;;;5025439;28;19971;-70
2023/01/27 14:14:54;;;;;;;;;;;;;;;;;;5006800;28;19927;-70
2023/01/27 14:17:25;;;;;;;;;;;;;;;;;;5017688;28;19929;-70
2023/01/27 14:19:51;;;;;;;;;;;;;;;;;;5010413;28;19940;-69
2023/01/27 14:22:17;;;;;;;;;;;;;;;;;;5013287;28;20274;-69
2023/01/27 14:24:43;;;;;;;;;;;;;;;;;;5014811;28;20051;-69
2023/01/27 14:27:08;;;;;;;;;;;;;;;;;;5007645;28;19921;-69
2023/01/27 14:29:34;;;;;;;;;;;;;;;;;;5020922;28;19932;-69
2023/01/27 14:32:00;;;;;;;;;;;;;;;;;;5031100;28;19929;-69
2023/01/27 14:34:26;;;;;;;;;;;;;;;;;;5028984;28;19925;-70
2023/01/27 14:36:52;;;;;;;;;;;;;;;;;;5024757;28;20008;-69
2023/01/27 14:39:18;;;;;;;;;;;;;;;;;;5016496;28;20401;-68
2023/01/27 14:41:44;;;;;;;;;;;;;;;;;;5005892;28;19954;-69
2023/01/27 14:44:10;;;;;;;;;;;;;;;;;;4998862;28;19964;-68
2023/01/27 14:46:36;;;;;;;;;;;;;;;;;;4991581;28;19922;-68
2023/01/27 14:49:02;;;;;;;;;;;;;;;;;;5015374;28;19924;-68
2023/01/27 14:51:27;;;;;;;;;;;;;;;;;;5007355;28;19987;-69
2023/01/27 14:53:53;;;;;;;;;;;;;;;;;;5013711;28;19964;-69
2023/01/27 14:56:19;;;;;;;;;;;;;;;;;;5012639;28;20016;-69
2023/01/27 14:58:45;;;;;;;;;;;;;;;;;;5024899;28;20476;-69
2023/01/27 15:01:11;;;;;;;;;;;;;;;;;;5029816;28;19925;-69
2023/01/27 15:03:37;;;;;;;;;;;;;;;;;;4995096;28;19922;-69
2023/01/27 15:06:03;;;;;;;;;;;;;;;;;;4990355;28;20387;-69
2023/01/27 15:08:29;;;;;;;;;;;;;;;;;;4985245;28;19949;-68
2023/01/27 15:10:55;;;;;;;;;;;;;;;;;;4989689;28;20378;-69
2023/01/27 15:13:21;;;;;;;;;;;;;;;;;;4982628;28;19930;-69
2023/01/27 15:15:47;;;;;;;;;;;;;;;;;;4982543;28;19922;-69
2023/01/27 15:18:12;;;;;;;;;;;;;;;;;;4971488;28;19933;-69
2023/01/27 15:20:38;;;;;;;;;;;;;;;;;;4975524;28;19926;-69
2023/01/27 15:23:04;;;;;;;;;;;;;;;;;;4989866;28;19989;-69
2023/01/27 15:25:32;;;;;;;;;;;;;;;;;;4995453;28;20339;-69
2023/01/27 15:27:58;;;;;;;;;;;;;;;;;;4993427;28;19968;-69
2023/01/27 15:30:24;;;;;;;;;;;;;;;;;;4990792;28;19965;-68
2023/01/27 15:32:50;;;;;;;;;;;;;;;;;;4989990;28;20387;-68
2023/01/27 15:35:16;;;;;;;;;;;;;;;;;;4993434;28;19928;-68
2023/01/27 15:37:42;;;;;;;;;;;;;;;;;;4994487;28;19926;-68
2023/01/27 15:40:10;;;;;;;;;;;;;;;;;;4995812;28;20387;-68
2023/01/27 15:42:36;;;;;;;;;;;;;;;;;;4994509;28;20372;-68
2023/01/27 15:45:02;;;;;;;;;;;;;;;;;;5010772;28;19937;-68
2023/01/27 15:47:28;;;;;;;;;;;;;;;;;;4990857;28;19944;-68
2023/01/27 15:49:54;;;;;;;;;;;;;;;;;;4994432;28;19922;-68
2023/01/27 15:52:20;;;;;;;;;;;;;;;;;;4995848;28;19926;-68
2023/01/27 15:54:45;;;;;;;;;;;;;;;;;;4994375;28;19926;-68
2023/01/27 15:57:11;;;;;;;;;;;;;;;;;;4995518;28;20405;-68
2023/01/27 15:59:37;;;;;;;;;;;;;;;;;;4992301;28;19921;-68
2023/01/27 16:02:03;;;;;;;;;;;;;;;;;;4997729;28;20283;-68
2023/01/27 16:04:30;;;;;;;;;;;;;;;;;;5015854;28;19925;-68
2023/01/27 16:07:02;;;;;;;;;;;;;;;;;;5017131;28;20290;-68
2023/01/27 16:09:28;;;;;;;;;;;;;;;;;;5017169;28;20019;-68
2023/01/27 16:11:54;;;;;;;;;;;;;;;;;;5034709;28;20011;-68
2023/01/27 16:14:20;;;;;;;;;;;;;;;;;;5033393;28;19929;-68
2023/01/27 16:16:47;;;;;;;;;;;;;;;;;;5016900;28;19921;-68
2023/01/27 16:19:13;;;;;;;;;;;;;;;;;;5015602;28;19925;-68
2023/01/27 16:21:38;;;;;;;;;;;;;;;;;;4997029;28;19921;-68
2023/01/27 16:24:04;;;;;;;;;;;;;;;;;;4997016;28;19949;-68
2023/01/27 16:26:30;;;;;;;;;;;;;;;;;;5014454;28;19929;-68
2023/01/27 16:28:56;;;;;;;;;;;;;;;;;;4997055;28;20483;-68
2023/01/27 16:31:22;;;;;;;;;;;;;;;;;;5032093;28;19932;-68
2023/01/27 16:33:48;;;;;;;;;;;;;;;;;;5015810;28;19925;-68
2023/01/27 16:36:14;;;;;;;;;;;;;;;;;;5014918;28;20413;-67
2023/01/27 16:38:40;;;;;;;;;;;;;;;;;;5034462;28;19971;-69
2023/01/27 16:41:08;;;;;;;;;;;;;;;;;;5034228;28;20004;-68
2023/01/27 16:43:34;;;;;;;;;;;;;;;;;;5033875;28;20374;-68
2023/01/27 16:46:00;;;;;;;;;;;;;;;;;;5016107;28;20069;-68
2023/01/27 16:48:26;;;;;;;;;;;;;;;;;;5015493;28;19925;-68
2023/01/27 16:50:52;;;;;;;;;;;;;;;;;;5032626;28;19927;-68
2023/01/27 16:53:18;;;;;;;;;;;;;;;;;;5033790;28;20012;-68
2023/01/27 16:55:44;;;;;;;;;;;;;;;;;;5015861;28;20343;-68
2023/01/27 16:58:10;;;;;;;;;;;;;;;;;;5015779;28;19936;-69
2023/01/27 17:00:36;;;;;;;;;;;;;;;;;;4996966;28;19921;-69
2023/01/27 17:03:02;;;;;;;;;;;;;;;;;;5015453;28;19964;-68
2023/01/27 17:05:27;;;;;;;;;;;;;;;;;;5015306;28;19925;-68
2023/01/27 17:07:53;;;;;;;;;;;;;;;;;;5014690;28;19979;-69
2023/01/27 17:10:19;;;;;;;;;;;;;;;;;;4998961;28;20011;-69